sensor_id;sensor_type;location;lat;lon;timestamp;noise_LAeq;noise_LA_min;noise_LA_max;noise_LA01;noise_LA95
71030;Laerm;63723;51.436;5.976;2023-06-14T00:00:07;54.72;53.33;57.04;;
71030;Laerm;63723;51.436;5.976;2023-06-14T00:00:18;54.58;53.06;57.18;;
71030;Laerm;63723;51.436;5.976;2023-06-14T00:00:28;54.61;53.30;56.70;;
71030;Laerm;63723;51.436;5.976;2023-06-14T00:00:38;54.61;53.16;57.20;;
71030;Laerm;63723;51.436;5.976;2023-06-14T00:00:52;55.03;53.32;64.40;;
71030;Laerm;63723;51.436;5.976;2023-06-14T00:01:03;54.99;53.31;63.21;;
71030;Laerm;63723;51.436;5.976;2023-06-14T00:01:16;55.75;53.00;64.55;;
71030;Laerm;63723;51.436;5.976;2023-06-14T00:01:27;54.98;53.13;57.89;;
71030;Laerm;63723;51.436;5.976;2023-06-14T00:01:37;54.75;52.92;57.43;;
71030;Laerm;63723;51.436;5.976;2023-06-14T00:01:48;54.60;53.07;57.49;;
71030;Laerm;63723;51.436;5.976;2023-06-14T00:01:58;55.50;53.32;64.14;;
71030;Laerm;63723;51.436;5.976;2023-06-14T00:02:09;55.82;53.55;57.78;;
71030;Laerm;63723;51.436;5.976;2023-06-14T00:02:19;55.50;52.83;65.10;;
71030;Laerm;63723;51.436;5.976;2023-06-14T00:02:29;54.54;52.76;62.89;;
71030;Laerm;63723;51.436;5.976;2023-06-14T00:02:39;54.65;53.16;57.20;;
71030;Laerm;63723;51.436;5.976;2023-06-14T00:02:49;55.30;53.27;65.29;;
71030;Laerm;63723;51.436;5.976;2023-06-14T00:03:00;54.66;53.29;57.40;;
71030;Laerm;63723;51.436;5.976;2023-06-14T00:03:10;54.53;52.98;57.17;;
71030;Laerm;63723;51.436;5.976;2023-06-14T00:03:21;54.56;53.10;57.94;;
71030;Laerm;63723;51.436;5.976;2023-06-14T00:03:32;54.56;52.73;56.71;;
71030;Laerm;63723;51.436;5.976;2023-06-14T00:03:42;54.64;53.06;57.35;;
71030;Laerm;63723;51.436;5.976;2023-06-14T00:03:53;54.78;53.18;57.11;;
71030;Laerm;63723;51.436;5.976;2023-06-14T00:04:04;54.54;52.51;58.13;;
71030;Laerm;63723;51.436;5.976;2023-06-14T00:04:18;55.29;53.22;65.41;;
71030;Laerm;63723;51.436;5.976;2023-06-14T00:04:30;54.93;53.34;63.19;;
71030;Laerm;63723;51.436;5.976;2023-06-14T00:04:41;54.76;53.30;58.08;;
71030;Laerm;63723;51.436;5.976;2023-06-14T00:04:51;54.78;52.62;58.05;;
71030;Laerm;63723;51.436;5.976;2023-06-14T00:05:01;54.92;53.05;57.97;;
71030;Laerm;63723;51.436;5.976;2023-06-14T00:05:12;55.13;53.34;57.96;;
71030;Laerm;63723;51.436;5.976;2023-06-14T00:05:23;55.02;53.02;57.33;;
71030;Laerm;63723;51.436;5.976;2023-06-14T00:05:34;55.65;53.73;64.94;;
71030;Laerm;63723;51.436;5.976;2023-06-14T00:05:48;54.96;53.06;58.17;;
71030;Laerm;63723;51.436;5.976;2023-06-14T00:05:58;54.73;53.14;57.24;;
71030;Laerm;63723;51.436;5.976;2023-06-14T00:06:09;54.75;53.31;57.88;;
71030;Laerm;63723;51.436;5.976;2023-06-14T00:06:19;55.65;53.64;58.33;;
71030;Laerm;63723;51.436;5.976;2023-06-14T00:06:29;54.89;52.46;57.69;;
71030;Laerm;63723;51.436;5.976;2023-06-14T00:06:40;54.95;53.45;57.48;;
71030;Laerm;63723;51.436;5.976;2023-06-14T00:06:51;54.88;52.97;57.26;;
71030;Laerm;63723;51.436;5.976;2023-06-14T00:07:02;54.83;53.38;57.64;;
71030;Laerm;63723;51.436;5.976;2023-06-14T00:07:12;55.11;53.36;64.51;;
71030;Laerm;63723;51.436;5.976;2023-06-14T00:07:33;55.87;53.75;59.30;;
71030;Laerm;63723;51.436;5.976;2023-06-14T00:07:43;55.75;53.13;58.42;;
71030;Laerm;63723;51.436;5.976;2023-06-14T00:07:53;54.58;52.91;57.07;;
71030;Laerm;63723;51.436;5.976;2023-06-14T00:08:04;54.93;53.35;58.60;;
71030;Laerm;63723;51.436;5.976;2023-06-14T00:08:17;55.06;53.55;57.72;;
71030;Laerm;63723;51.436;5.976;2023-06-14T00:08:28;55.94;53.93;59.20;;
71030;Laerm;63723;51.436;5.976;2023-06-14T00:08:39;55.99;53.33;65.78;;
71030;Laerm;63723;51.436;5.976;2023-06-14T00:08:50;54.89;53.38;57.30;;
71030;Laerm;63723;51.436;5.976;2023-06-14T00:09:01;54.87;53.48;57.77;;
71030;Laerm;63723;51.436;5.976;2023-06-14T00:09:11;55.96;53.85;61.08;;
71030;Laerm;63723;51.436;5.976;2023-06-14T00:09:27;55.10;53.32;57.75;;
71030;Laerm;63723;51.436;5.976;2023-06-14T00:09:37;55.04;53.22;61.51;;
71030;Laerm;63723;51.436;5.976;2023-06-14T00:09:48;55.10;53.65;57.90;;
71030;Laerm;63723;51.436;5.976;2023-06-14T00:09:58;55.04;53.32;57.72;;
71030;Laerm;63723;51.436;5.976;2023-06-14T00:10:08;54.95;53.34;56.93;;
71030;Laerm;63723;51.436;5.976;2023-06-14T00:10:19;55.02;53.64;59.30;;
71030;Laerm;63723;51.436;5.976;2023-06-14T00:10:29;55.53;53.65;58.72;;
71030;Laerm;63723;51.436;5.976;2023-06-14T00:10:42;55.67;54.09;58.09;;
71030;Laerm;63723;51.436;5.976;2023-06-14T00:10:52;55.82;53.47;64.20;;
71030;Laerm;63723;51.436;5.976;2023-06-14T00:11:03;55.59;53.86;58.25;;
71030;Laerm;63723;51.436;5.976;2023-06-14T00:11:13;55.29;53.59;57.40;;
71030;Laerm;63723;51.436;5.976;2023-06-14T00:11:24;55.74;53.73;58.61;;
71030;Laerm;63723;51.436;5.976;2023-06-14T00:11:36;55.55;53.86;57.71;;
71030;Laerm;63723;51.436;5.976;2023-06-14T00:11:46;55.46;53.91;62.07;;
71030;Laerm;63723;51.436;5.976;2023-06-14T00:11:57;55.54;53.98;58.25;;
71030;Laerm;63723;51.436;5.976;2023-06-14T00:12:07;55.27;53.73;57.70;;
71030;Laerm;63723;51.436;5.976;2023-06-14T00:12:18;55.41;53.93;57.82;;
71030;Laerm;63723;51.436;5.976;2023-06-14T00:12:28;55.32;54.03;57.57;;
71030;Laerm;63723;51.436;5.976;2023-06-14T00:12:39;55.42;53.70;57.69;;
71030;Laerm;63723;51.436;5.976;2023-06-14T00:12:49;55.48;53.72;57.22;;
71030;Laerm;63723;51.436;5.976;2023-06-14T00:12:59;55.40;53.79;64.05;;
71030;Laerm;63723;51.436;5.976;2023-06-14T00:13:10;55.95;53.74;64.22;;
71030;Laerm;63723;51.436;5.976;2023-06-14T00:13:21;55.52;54.15;58.03;;
71030;Laerm;63723;51.436;5.976;2023-06-14T00:13:31;55.32;53.56;57.38;;
71030;Laerm;63723;51.436;5.976;2023-06-14T00:13:41;55.32;53.46;58.40;;
71030;Laerm;63723;51.436;5.976;2023-06-14T00:13:53;55.25;53.77;64.50;;
71030;Laerm;63723;51.436;5.976;2023-06-14T00:14:03;56.16;53.83;64.54;;
71030;Laerm;63723;51.436;5.976;2023-06-14T00:14:13;56.40;53.97;58.73;;
71030;Laerm;63723;51.436;5.976;2023-06-14T00:14:24;55.76;54.12;58.58;;
71030;Laerm;63723;51.436;5.976;2023-06-14T00:14:34;55.56;53.94;58.66;;
71030;Laerm;63723;51.436;5.976;2023-06-14T00:14:45;55.25;53.45;57.31;;
71030;Laerm;63723;51.436;5.976;2023-06-14T00:14:55;54.92;52.88;57.52;;
71030;Laerm;63723;51.436;5.976;2023-06-14T00:15:05;54.99;53.19;57.57;;
71030;Laerm;63723;51.436;5.976;2023-06-14T00:15:16;55.04;53.36;61.44;;
71030;Laerm;63723;51.436;5.976;2023-06-14T00:15:26;55.43;53.58;60.32;;
71030;Laerm;63723;51.436;5.976;2023-06-14T00:15:37;55.87;53.37;65.89;;
71030;Laerm;63723;51.436;5.976;2023-06-14T00:15:47;54.83;52.95;57.47;;
71030;Laerm;63723;51.436;5.976;2023-06-14T00:15:57;54.84;53.08;57.82;;
71030;Laerm;63723;51.436;5.976;2023-06-14T00:16:08;55.20;53.70;58.10;;
71030;Laerm;63723;51.436;5.976;2023-06-14T00:16:18;55.12;53.42;58.37;;
71030;Laerm;63723;51.436;5.976;2023-06-14T00:16:29;54.92;53.45;58.55;;
71030;Laerm;63723;51.436;5.976;2023-06-14T00:16:40;55.04;53.43;62.68;;
71030;Laerm;63723;51.436;5.976;2023-06-14T00:16:52;55.12;53.33;63.59;;
71030;Laerm;63723;51.436;5.976;2023-06-14T00:17:02;55.15;53.71;57.31;;
71030;Laerm;63723;51.436;5.976;2023-06-14T00:17:13;54.98;53.34;57.23;;
71030;Laerm;63723;51.436;5.976;2023-06-14T00:17:27;55.22;53.16;64.96;;
71030;Laerm;63723;51.436;5.976;2023-06-14T00:17:40;54.96;53.53;58.39;;
71030;Laerm;63723;51.436;5.976;2023-06-14T00:17:50;55.05;53.44;57.27;;
71030;Laerm;63723;51.436;5.976;2023-06-14T00:18:01;55.24;53.44;58.51;;
71030;Laerm;63723;51.436;5.976;2023-06-14T00:18:11;54.84;53.23;58.18;;
71030;Laerm;63723;51.436;5.976;2023-06-14T00:18:22;54.93;53.62;57.77;;
71030;Laerm;63723;51.436;5.976;2023-06-14T00:18:36;55.50;53.48;58.26;;
71030;Laerm;63723;51.436;5.976;2023-06-14T00:18:46;54.78;53.53;57.79;;
71030;Laerm;63723;51.436;5.976;2023-06-14T00:18:57;55.05;53.31;58.00;;
71030;Laerm;63723;51.436;5.976;2023-06-14T00:19:08;54.86;53.39;58.25;;
71030;Laerm;63723;51.436;5.976;2023-06-14T00:19:18;55.46;53.66;63.03;;
71030;Laerm;63723;51.436;5.976;2023-06-14T00:19:29;55.57;53.74;58.22;;
71030;Laerm;63723;51.436;5.976;2023-06-14T00:19:42;54.85;53.41;57.94;;
71030;Laerm;63723;51.436;5.976;2023-06-14T00:19:53;54.91;53.68;57.78;;
71030;Laerm;63723;51.436;5.976;2023-06-14T00:20:04;55.17;53.29;57.27;;
71030;Laerm;63723;51.436;5.976;2023-06-14T00:20:17;54.87;53.50;58.52;;
71030;Laerm;63723;51.436;5.976;2023-06-14T00:20:28;54.90;52.71;58.54;;
71030;Laerm;63723;51.436;5.976;2023-06-14T00:20:38;54.42;52.80;56.91;;
71030;Laerm;63723;51.436;5.976;2023-06-14T00:20:49;55.57;53.18;58.54;;
71030;Laerm;63723;51.436;5.976;2023-06-14T00:21:00;54.52;52.78;58.30;;
71030;Laerm;63723;51.436;5.976;2023-06-14T00:21:12;54.72;52.35;57.56;;
71030;Laerm;63723;51.436;5.976;2023-06-14T00:21:22;54.61;52.87;57.69;;
71030;Laerm;63723;51.436;5.976;2023-06-14T00:21:32;54.64;52.99;57.09;;
71030;Laerm;63723;51.436;5.976;2023-06-14T00:21:43;54.77;53.17;61.40;;
71030;Laerm;63723;51.436;5.976;2023-06-14T00:21:53;56.16;54.03;58.41;;
71030;Laerm;63723;51.436;5.976;2023-06-14T00:22:03;56.06;53.57;57.90;;
71030;Laerm;63723;51.436;5.976;2023-06-14T00:22:14;54.55;52.99;56.98;;
71030;Laerm;63723;51.436;5.976;2023-06-14T00:22:24;54.60;52.56;58.19;;
71030;Laerm;63723;51.436;5.976;2023-06-14T00:22:34;54.36;52.97;57.25;;
71030;Laerm;63723;51.436;5.976;2023-06-14T00:22:46;54.47;52.91;57.14;;
71030;Laerm;63723;51.436;5.976;2023-06-14T00:22:58;55.36;53.21;64.99;;
71030;Laerm;63723;51.436;5.976;2023-06-14T00:23:09;54.66;53.13;62.42;;
71030;Laerm;63723;51.436;5.976;2023-06-14T00:23:20;54.82;52.56;63.85;;
71030;Laerm;63723;51.436;5.976;2023-06-14T00:23:30;54.76;52.86;57.64;;
71030;Laerm;63723;51.436;5.976;2023-06-14T00:23:40;55.81;52.91;58.41;;
71030;Laerm;63723;51.436;5.976;2023-06-14T00:23:51;54.85;53.18;57.65;;
71030;Laerm;63723;51.436;5.976;2023-06-14T00:24:01;54.93;52.99;57.47;;
71030;Laerm;63723;51.436;5.976;2023-06-14T00:24:11;54.97;52.97;63.79;;
71030;Laerm;63723;51.436;5.976;2023-06-14T00:24:21;54.46;52.58;56.99;;
71030;Laerm;63723;51.436;5.976;2023-06-14T00:24:32;54.64;53.26;56.88;;
71030;Laerm;63723;51.436;5.976;2023-06-14T00:24:42;55.26;52.83;71.07;;
71030;Laerm;63723;51.436;5.976;2023-06-14T00:24:52;54.39;52.70;56.77;;
71030;Laerm;63723;51.436;5.976;2023-06-14T00:25:02;54.68;52.54;57.07;;
71030;Laerm;63723;51.436;5.976;2023-06-14T00:25:13;54.39;52.84;57.43;;
71030;Laerm;63723;51.436;5.976;2023-06-14T00:25:23;54.34;52.74;57.40;;
71030;Laerm;63723;51.436;5.976;2023-06-14T00:25:35;54.66;52.56;57.54;;
71030;Laerm;63723;51.436;5.976;2023-06-14T00:25:45;54.80;52.73;58.00;;
71030;Laerm;63723;51.436;5.976;2023-06-14T00:25:56;54.83;52.82;64.59;;
71030;Laerm;63723;51.436;5.976;2023-06-14T00:26:06;54.72;53.08;57.53;;
71030;Laerm;63723;51.436;5.976;2023-06-14T00:26:17;54.50;52.92;57.99;;
71030;Laerm;63723;51.436;5.976;2023-06-14T00:26:27;55.33;52.98;58.29;;
71030;Laerm;63723;51.436;5.976;2023-06-14T00:26:37;56.46;53.71;58.39;;
71030;Laerm;63723;51.436;5.976;2023-06-14T00:26:47;54.89;52.67;57.78;;
71030;Laerm;63723;51.436;5.976;2023-06-14T00:26:58;54.76;53.02;57.64;;
71030;Laerm;63723;51.436;5.976;2023-06-14T00:27:08;54.87;52.85;57.68;;
71030;Laerm;63723;51.436;5.976;2023-06-14T00:27:18;54.84;53.16;57.12;;
71030;Laerm;63723;51.436;5.976;2023-06-14T00:27:28;54.52;53.05;56.99;;
71030;Laerm;63723;51.436;5.976;2023-06-14T00:27:39;54.60;53.20;57.46;;
71030;Laerm;63723;51.436;5.976;2023-06-14T00:27:49;54.53;52.82;57.04;;
71030;Laerm;63723;51.436;5.976;2023-06-14T00:27:59;55.07;53.06;57.70;;
71030;Laerm;63723;51.436;5.976;2023-06-14T00:28:10;55.02;52.67;57.78;;
71030;Laerm;63723;51.436;5.976;2023-06-14T00:28:20;54.83;53.13;57.30;;
71030;Laerm;63723;51.436;5.976;2023-06-14T00:28:30;54.43;52.52;57.70;;
71030;Laerm;63723;51.436;5.976;2023-06-14T00:28:41;54.53;52.74;57.38;;
71030;Laerm;63723;51.436;5.976;2023-06-14T00:28:52;54.67;52.55;63.92;;
71030;Laerm;63723;51.436;5.976;2023-06-14T00:29:02;54.60;52.94;56.64;;
71030;Laerm;63723;51.436;5.976;2023-06-14T00:29:12;55.01;52.82;63.82;;
71030;Laerm;63723;51.436;5.976;2023-06-14T00:29:22;54.70;52.76;57.12;;
71030;Laerm;63723;51.436;5.976;2023-06-14T00:29:33;54.45;52.85;56.59;;
71030;Laerm;63723;51.436;5.976;2023-06-14T00:29:43;54.87;52.64;58.88;;
71030;Laerm;63723;51.436;5.976;2023-06-14T00:29:53;54.21;52.88;56.56;;
71030;Laerm;63723;51.436;5.976;2023-06-14T00:30:04;56.80;52.66;58.94;;
71030;Laerm;63723;51.436;5.976;2023-06-14T00:30:14;57.48;55.48;59.45;;
71030;Laerm;63723;51.436;5.976;2023-06-14T00:30:24;57.64;56.28;59.74;;
71030;Laerm;63723;51.436;5.976;2023-06-14T00:30:35;57.42;56.05;59.51;;
71030;Laerm;63723;51.436;5.976;2023-06-14T00:30:45;57.33;55.65;63.37;;
71030;Laerm;63723;51.436;5.976;2023-06-14T00:30:56;57.49;56.03;64.28;;
71030;Laerm;63723;51.436;5.976;2023-06-14T00:31:06;57.55;55.91;59.14;;
71030;Laerm;63723;51.436;5.976;2023-06-14T00:31:17;57.65;55.87;59.51;;
71030;Laerm;63723;51.436;5.976;2023-06-14T00:31:27;57.45;55.72;58.97;;
71030;Laerm;63723;51.436;5.976;2023-06-14T00:31:37;57.39;55.57;59.53;;
71030;Laerm;63723;51.436;5.976;2023-06-14T00:31:47;57.18;55.65;59.49;;
71030;Laerm;63723;51.436;5.976;2023-06-14T00:31:58;57.00;55.12;58.94;;
71030;Laerm;63723;51.436;5.976;2023-06-14T00:32:08;56.90;53.61;59.56;;
71030;Laerm;63723;51.436;5.976;2023-06-14T00:32:18;54.66;52.73;57.81;;
71030;Laerm;63723;51.436;5.976;2023-06-14T00:32:29;56.02;52.46;58.74;;
71030;Laerm;63723;51.436;5.976;2023-06-14T00:32:39;57.09;55.33;58.94;;
71030;Laerm;63723;51.436;5.976;2023-06-14T00:32:50;57.38;55.95;59.42;;
71030;Laerm;63723;51.436;5.976;2023-06-14T00:33:01;57.37;55.45;60.05;;
71030;Laerm;63723;51.436;5.976;2023-06-14T00:33:11;58.03;55.19;59.73;;
71030;Laerm;63723;51.436;5.976;2023-06-14T00:33:22;57.26;55.71;58.87;;
71030;Laerm;63723;51.436;5.976;2023-06-14T00:33:32;57.22;55.74;58.88;;
71030;Laerm;63723;51.436;5.976;2023-06-14T00:33:42;57.12;55.46;59.16;;
71030;Laerm;63723;51.436;5.976;2023-06-14T00:33:52;56.53;55.19;58.70;;
71030;Laerm;63723;51.436;5.976;2023-06-14T00:34:03;57.10;55.40;59.15;;
71030;Laerm;63723;51.436;5.976;2023-06-14T00:34:13;56.90;55.36;59.06;;
71030;Laerm;63723;51.436;5.976;2023-06-14T00:34:23;57.06;55.50;58.89;;
71030;Laerm;63723;51.436;5.976;2023-06-14T00:34:34;57.00;55.44;65.29;;
71030;Laerm;63723;51.436;5.976;2023-06-14T00:34:44;56.56;55.08;58.35;;
71030;Laerm;63723;51.436;5.976;2023-06-14T00:34:54;56.99;55.34;59.39;;
71030;Laerm;63723;51.436;5.976;2023-06-14T00:35:05;57.19;55.07;62.97;;
71030;Laerm;63723;51.436;5.976;2023-06-14T00:35:15;57.17;55.66;59.14;;
71030;Laerm;63723;51.436;5.976;2023-06-14T00:35:25;56.87;55.26;63.44;;
71030;Laerm;63723;51.436;5.976;2023-06-14T00:35:36;56.95;55.37;59.01;;
71030;Laerm;63723;51.436;5.976;2023-06-14T00:35:46;57.67;56.06;59.19;;
71030;Laerm;63723;51.436;5.976;2023-06-14T00:35:57;57.65;56.16;59.49;;
71030;Laerm;63723;51.436;5.976;2023-06-14T00:36:07;57.99;56.06;59.86;;
71030;Laerm;63723;51.436;5.976;2023-06-14T00:36:17;57.25;55.91;59.06;;
71030;Laerm;63723;51.436;5.976;2023-06-14T00:36:28;57.45;55.53;64.09;;
71030;Laerm;63723;51.436;5.976;2023-06-14T00:36:38;57.67;55.69;64.21;;
71030;Laerm;63723;51.436;5.976;2023-06-14T00:36:48;57.05;54.43;63.74;;
71030;Laerm;63723;51.436;5.976;2023-06-14T00:36:59;55.50;53.62;58.28;;
71030;Laerm;63723;51.436;5.976;2023-06-14T00:37:09;55.26;53.48;57.48;;
71030;Laerm;63723;51.436;5.976;2023-06-14T00:37:19;55.37;53.70;58.82;;
71030;Laerm;63723;51.436;5.976;2023-06-14T00:37:30;55.26;53.62;57.74;;
71030;Laerm;63723;51.436;5.976;2023-06-14T00:37:40;55.29;53.64;57.57;;
71030;Laerm;63723;51.436;5.976;2023-06-14T00:37:50;55.50;53.55;57.90;;
71030;Laerm;63723;51.436;5.976;2023-06-14T00:38:01;55.92;54.02;64.55;;
71030;Laerm;63723;51.436;5.976;2023-06-14T00:38:12;55.45;53.38;57.72;;
71030;Laerm;63723;51.436;5.976;2023-06-14T00:38:22;55.81;53.49;60.74;;
71030;Laerm;63723;51.436;5.976;2023-06-14T00:38:33;56.54;54.59;58.89;;
71030;Laerm;63723;51.436;5.976;2023-06-14T00:38:43;56.22;53.93;59.57;;
71030;Laerm;63723;51.436;5.976;2023-06-14T00:38:53;57.54;55.88;59.56;;
71030;Laerm;63723;51.436;5.976;2023-06-14T00:39:03;57.29;55.65;59.99;;
71030;Laerm;63723;51.436;5.976;2023-06-14T00:39:14;57.42;55.54;58.99;;
71030;Laerm;63723;51.436;5.976;2023-06-14T00:39:24;57.16;55.49;58.90;;
71030;Laerm;63723;51.436;5.976;2023-06-14T00:39:34;57.35;55.57;65.48;;
71030;Laerm;63723;51.436;5.976;2023-06-14T00:39:45;57.47;55.65;59.45;;
71030;Laerm;63723;51.436;5.976;2023-06-14T00:39:55;57.54;56.05;59.58;;
71030;Laerm;63723;51.436;5.976;2023-06-14T00:40:06;57.36;55.93;59.09;;
71030;Laerm;63723;51.436;5.976;2023-06-14T00:40:16;57.39;55.82;58.92;;
71030;Laerm;63723;51.436;5.976;2023-06-14T00:40:26;57.38;55.37;59.00;;
71030;Laerm;63723;51.436;5.976;2023-06-14T00:40:37;57.43;55.80;59.50;;
71030;Laerm;63723;51.436;5.976;2023-06-14T00:40:47;57.63;55.16;64.94;;
71030;Laerm;63723;51.436;5.976;2023-06-14T00:40:57;57.31;55.30;60.38;;
71030;Laerm;63723;51.436;5.976;2023-06-14T00:41:07;57.15;55.40;59.70;;
71030;Laerm;63723;51.436;5.976;2023-06-14T00:41:18;57.81;55.40;60.15;;
71030;Laerm;63723;51.436;5.976;2023-06-14T00:41:28;57.78;55.65;60.14;;
71030;Laerm;63723;51.436;5.976;2023-06-14T00:41:39;57.34;55.65;59.73;;
71030;Laerm;63723;51.436;5.976;2023-06-14T00:41:49;57.70;55.99;59.32;;
71030;Laerm;63723;51.436;5.976;2023-06-14T00:41:59;57.22;55.57;59.69;;
71030;Laerm;63723;51.436;5.976;2023-06-14T00:42:09;57.63;55.56;66.29;;
71030;Laerm;63723;51.436;5.976;2023-06-14T00:42:23;58.15;56.24;59.84;;
71030;Laerm;63723;51.436;5.976;2023-06-14T00:42:34;58.32;56.60;67.76;;
71030;Laerm;63723;51.436;5.976;2023-06-14T00:42:44;57.96;56.41;59.69;;
71030;Laerm;63723;51.436;5.976;2023-06-14T00:42:54;58.21;56.72;59.54;;
71030;Laerm;63723;51.436;5.976;2023-06-14T00:43:05;58.46;56.71;60.46;;
71030;Laerm;63723;51.436;5.976;2023-06-14T00:43:15;58.29;56.27;67.61;;
71030;Laerm;63723;51.436;5.976;2023-06-14T00:43:26;58.55;56.45;60.42;;
71030;Laerm;63723;51.436;5.976;2023-06-14T00:43:36;56.00;51.73;59.88;;
71030;Laerm;63723;51.436;5.976;2023-06-14T00:43:46;53.30;51.45;55.22;;
71030;Laerm;63723;51.436;5.976;2023-06-14T00:43:57;56.74;51.45;59.31;;
71030;Laerm;63723;51.436;5.976;2023-06-14T00:44:07;58.63;56.26;61.26;;
71030;Laerm;63723;51.436;5.976;2023-06-14T00:44:17;58.91;56.00;66.52;;
71030;Laerm;63723;51.436;5.976;2023-06-14T00:44:28;58.16;56.55;59.82;;
71030;Laerm;63723;51.436;5.976;2023-06-14T00:44:38;58.25;56.26;60.04;;
71030;Laerm;63723;51.436;5.976;2023-06-14T00:44:48;57.87;56.22;59.89;;
71030;Laerm;63723;51.436;5.976;2023-06-14T00:44:59;58.62;56.37;64.83;;
71030;Laerm;63723;51.436;5.976;2023-06-14T00:45:09;58.21;56.54;60.31;;
71030;Laerm;63723;51.436;5.976;2023-06-14T00:45:20;58.34;56.65;62.94;;
71030;Laerm;63723;51.436;5.976;2023-06-14T00:45:30;58.59;56.73;60.33;;
71030;Laerm;63723;51.436;5.976;2023-06-14T00:45:41;57.90;56.70;59.51;;
71030;Laerm;63723;51.436;5.976;2023-06-14T00:45:51;57.96;56.73;59.23;;
71030;Laerm;63723;51.436;5.976;2023-06-14T00:46:02;58.60;56.77;60.83;;
71030;Laerm;63723;51.436;5.976;2023-06-14T00:46:12;58.78;56.56;60.33;;
71030;Laerm;63723;51.436;5.976;2023-06-14T00:46:22;57.75;55.83;59.10;;
71030;Laerm;63723;51.436;5.976;2023-06-14T00:46:32;58.48;56.48;60.24;;
71030;Laerm;63723;51.436;5.976;2023-06-14T00:46:45;57.97;56.42;59.53;;
71030;Laerm;63723;51.436;5.976;2023-06-14T00:46:55;58.10;56.70;59.73;;
71030;Laerm;63723;51.436;5.976;2023-06-14T00:47:06;58.14;56.40;65.38;;
71030;Laerm;63723;51.436;5.976;2023-06-14T00:47:16;58.27;56.27;65.80;;
71030;Laerm;63723;51.436;5.976;2023-06-14T00:47:26;58.34;56.34;60.11;;
71030;Laerm;63723;51.436;5.976;2023-06-14T00:47:37;58.28;56.67;59.86;;
71030;Laerm;63723;51.436;5.976;2023-06-14T00:47:48;56.72;53.66;64.23;;
71030;Laerm;63723;51.436;5.976;2023-06-14T00:48:01;56.66;53.88;63.54;;
71030;Laerm;63723;51.436;5.976;2023-06-14T00:48:12;55.68;54.10;58.47;;
71030;Laerm;63723;51.436;5.976;2023-06-14T00:48:23;55.97;54.01;59.31;;
71030;Laerm;63723;51.436;5.976;2023-06-14T00:48:34;57.29;54.59;59.85;;
71030;Laerm;63723;51.436;5.976;2023-06-14T00:48:45;56.00;53.93;65.67;;
71030;Laerm;63723;51.436;5.976;2023-06-14T00:48:56;56.57;54.30;60.37;;
71030;Laerm;63723;51.436;5.976;2023-06-14T00:49:06;57.17;54.47;59.80;;
71030;Laerm;63723;51.436;5.976;2023-06-14T00:49:17;57.62;54.46;59.76;;
71030;Laerm;63723;51.436;5.976;2023-06-14T00:49:27;56.09;54.36;57.67;;
71030;Laerm;63723;51.436;5.976;2023-06-14T00:49:39;55.90;54.03;62.80;;
71030;Laerm;63723;51.436;5.976;2023-06-14T00:49:49;55.79;54.00;57.42;;
71030;Laerm;63723;51.436;5.976;2023-06-14T00:50:03;55.88;54.00;58.16;;
71030;Laerm;63723;51.436;5.976;2023-06-14T00:50:16;56.07;54.12;58.18;;
71030;Laerm;63723;51.436;5.976;2023-06-14T00:50:26;55.90;54.11;57.86;;
71030;Laerm;63723;51.436;5.976;2023-06-14T00:50:37;56.16;53.89;57.89;;
71030;Laerm;63723;51.436;5.976;2023-06-14T00:50:49;55.95;54.27;64.28;;
71030;Laerm;63723;51.436;5.976;2023-06-14T00:50:59;55.85;54.14;61.80;;
71030;Laerm;63723;51.436;5.976;2023-06-14T00:51:12;55.92;53.81;62.69;;
71030;Laerm;63723;51.436;5.976;2023-06-14T00:51:22;57.30;54.45;66.90;;
71030;Laerm;63723;51.436;5.976;2023-06-14T00:51:32;55.93;54.28;57.54;;
71030;Laerm;63723;51.436;5.976;2023-06-14T00:51:42;56.42;54.30;62.83;;
71030;Laerm;63723;51.436;5.976;2023-06-14T00:51:53;58.55;55.46;59.97;;
71030;Laerm;63723;51.436;5.976;2023-06-14T00:52:03;57.61;54.13;59.12;;
71030;Laerm;63723;51.436;5.976;2023-06-14T00:52:14;57.64;54.34;60.47;;
71030;Laerm;63723;51.436;5.976;2023-06-14T00:52:25;58.60;56.43;61.13;;
71030;Laerm;63723;51.436;5.976;2023-06-14T00:52:35;59.09;57.38;60.82;;
71030;Laerm;63723;51.436;5.976;2023-06-14T00:52:46;58.40;56.67;59.88;;
71030;Laerm;63723;51.436;5.976;2023-06-14T00:52:56;58.73;57.18;60.65;;
71030;Laerm;63723;51.436;5.976;2023-06-14T00:53:07;59.14;57.59;66.06;;
71030;Laerm;63723;51.436;5.976;2023-06-14T00:53:18;59.14;57.78;61.27;;
71030;Laerm;63723;51.436;5.976;2023-06-14T00:53:29;58.66;56.72;61.08;;
71030;Laerm;63723;51.436;5.976;2023-06-14T00:53:39;58.70;56.73;60.45;;
71030;Laerm;63723;51.436;5.976;2023-06-14T00:53:50;58.62;57.21;64.18;;
71030;Laerm;63723;51.436;5.976;2023-06-14T00:54:01;58.54;57.00;60.18;;
71030;Laerm;63723;51.436;5.976;2023-06-14T00:54:11;58.92;57.20;61.61;;
71030;Laerm;63723;51.436;5.976;2023-06-14T00:54:21;58.76;57.00;61.19;;
71030;Laerm;63723;51.436;5.976;2023-06-14T00:54:32;58.94;57.06;60.63;;
71030;Laerm;63723;51.436;5.976;2023-06-14T00:54:42;59.36;57.46;62.04;;
71030;Laerm;63723;51.436;5.976;2023-06-14T00:54:52;59.14;57.22;61.10;;
71030;Laerm;63723;51.436;5.976;2023-06-14T00:55:03;58.85;57.05;60.23;;
71030;Laerm;63723;51.436;5.976;2023-06-14T00:55:13;58.78;57.16;60.29;;
71030;Laerm;63723;51.436;5.976;2023-06-14T00:55:23;59.02;57.41;60.56;;
71030;Laerm;63723;51.436;5.976;2023-06-14T00:55:34;58.99;57.78;60.40;;
71030;Laerm;63723;51.436;5.976;2023-06-14T00:55:44;58.96;57.59;60.94;;
71030;Laerm;63723;51.436;5.976;2023-06-14T00:55:54;58.99;57.61;61.20;;
71030;Laerm;63723;51.436;5.976;2023-06-14T00:56:04;59.42;57.61;61.51;;
71030;Laerm;63723;51.436;5.976;2023-06-14T00:56:15;59.66;57.79;65.79;;
71030;Laerm;63723;51.436;5.976;2023-06-14T00:56:26;57.99;55.40;65.79;;
71030;Laerm;63723;51.436;5.976;2023-06-14T00:56:37;57.60;55.01;64.07;;
71030;Laerm;63723;51.436;5.976;2023-06-14T00:56:48;57.03;54.60;59.07;;
71030;Laerm;63723;51.436;5.976;2023-06-14T00:56:58;57.07;55.03;60.06;;
71030;Laerm;63723;51.436;5.976;2023-06-14T00:57:11;56.63;54.93;58.34;;
71030;Laerm;63723;51.436;5.976;2023-06-14T00:57:22;56.83;54.91;59.00;;
71030;Laerm;63723;51.436;5.976;2023-06-14T00:57:33;56.33;54.47;58.20;;
71030;Laerm;63723;51.436;5.976;2023-06-14T00:57:48;55.85;54.18;57.56;;
71030;Laerm;63723;51.436;5.976;2023-06-14T00:57:59;56.20;54.41;58.54;;
71030;Laerm;63723;51.436;5.976;2023-06-14T00:58:10;56.40;54.24;62.17;;
71030;Laerm;63723;51.436;5.976;2023-06-14T00:58:21;56.55;54.32;63.62;;
71030;Laerm;63723;51.436;5.976;2023-06-14T00:58:32;56.46;53.99;58.21;;
71030;Laerm;63723;51.436;5.976;2023-06-14T00:58:42;56.37;53.87;58.67;;
71030;Laerm;63723;51.436;5.976;2023-06-14T00:58:53;56.03;54.25;58.29;;
71030;Laerm;63723;51.436;5.976;2023-06-14T00:59:03;56.06;53.91;58.31;;
71030;Laerm;63723;51.436;5.976;2023-06-14T00:59:13;56.07;54.10;58.65;;
71030;Laerm;63723;51.436;5.976;2023-06-14T00:59:25;56.10;54.27;59.18;;
71030;Laerm;63723;51.436;5.976;2023-06-14T00:59:36;56.24;53.94;63.26;;
71030;Laerm;63723;51.436;5.976;2023-06-14T00:59:48;56.36;54.09;58.89;;
71030;Laerm;63723;51.436;5.976;2023-06-14T00:59:59;56.46;54.30;58.55;;